Terminal Aerodrome Forecast
Issued by NWS Green Bay, WI

Home | Current Version | Previous Version | Text Only | Print | Product List | Glossary Off
Versions: 1 2 3 4 5 6 7 8 9 10 11 12 13 14 15 16 17 18 19 20 21 22 23 24 25 26 27 28 29 30

642
FTUS43 KGRB 260841 AAB
TAFGRB
TAF AMD
KGRB 260841Z 2609/2706 26005KT P6SM SCT050 SCT070
     FM261100 29009KT P6SM BKN050
     FM261400 29011G15KT P6SM VCSH BKN035
     FM261600 31013G17KT P6SM VCSH OVC030
     FM262000 32013G21KT P6SM VCSH BKN035
     FM262300 32010KT P6SM FEW040 BKN100
     FM270100 33006KT P6SM SCT100=

USA.gov is the U.S. government's official web portal to all federal, state and local government web resources and services.